Apple Grove, North Carolina
Current Conditions -  °F | °C
As of 12:15 PM on Friday 28 Nov 2014 (Local Time) from KGEV Reporting Station
Clear Clear  
Wind Chill: 19°   Ceiling: Unl
Heat Index: 28°   Visibility: 10mi
Dew Point: 15°   Wind: 9mph
Humidity: 59%   Direction: 260°W
Pressure: 30.22"   Gusts: NA
Location:  36.524°N, 81.538°W
Report Text: KGEV 281715Z AUTO 26008KT 10SM CLR M02/M10 A3022 RMK AO2 T10251096
Loading
Personal Weather Stations






























Interactive Weather Map New forecast layout! Learn more

10-Day Weather Forecast

Advertisements
Track Severe Weather on mobile